sensor_id;sensor_type;location;lat;lon;timestamp;temperature;humidity
7317;DHT22;3699;51.462;6.696;2022-10-16T00:00:31;14.40;99.90
7317;DHT22;3699;51.462;6.696;2022-10-16T00:02:58;14.40;99.90
7317;DHT22;3699;51.462;6.696;2022-10-16T00:05:25;14.40;99.90
7317;DHT22;3699;51.462;6.696;2022-10-16T00:07:52;14.40;99.90
7317;DHT22;3699;51.462;6.696;2022-10-16T00:10:19;14.40;99.90
7317;DHT22;3699;51.462;6.696;2022-10-16T00:12:45;14.30;99.90
7317;DHT22;3699;51.462;6.696;2022-10-16T00:15:14;14.30;99.90
7317;DHT22;3699;51.462;6.696;2022-10-16T00:17:41;14.30;99.90
7317;DHT22;3699;51.462;6.696;2022-10-16T00:20:08;14.30;99.90
7317;DHT22;3699;51.462;6.696;2022-10-16T00:22:35;14.30;99.90
7317;DHT22;3699;51.462;6.696;2022-10-16T00:25:01;14.30;99.90
7317;DHT22;3699;51.462;6.696;2022-10-16T00:27:28;14.30;99.90
7317;DHT22;3699;51.462;6.696;2022-10-16T00:29:55;14.30;99.90
7317;DHT22;3699;51.462;6.696;2022-10-16T00:32:23;14.30;99.90
7317;DHT22;3699;51.462;6.696;2022-10-16T00:34:50;14.30;99.90
7317;DHT22;3699;51.462;6.696;2022-10-16T00:37:16;14.30;99.90
7317;DHT22;3699;51.462;6.696;2022-10-16T00:39:43;14.30;99.90
7317;DHT22;3699;51.462;6.696;2022-10-16T00:42:15;14.30;99.90
7317;DHT22;3699;51.462;6.696;2022-10-16T00:44:45;14.40;99.90
7317;DHT22;3699;51.462;6.696;2022-10-16T00:47:15;14.40;99.90
7317;DHT22;3699;51.462;6.696;2022-10-16T00:49:46;14.30;99.90
7317;DHT22;3699;51.462;6.696;2022-10-16T00:52:14;14.40;99.90
7317;DHT22;3699;51.462;6.696;2022-10-16T00:54:41;14.30;99.90
7317;DHT22;3699;51.462;6.696;2022-10-16T00:57:08;14.30;99.90
7317;DHT22;3699;51.462;6.696;2022-10-16T00:59:37;14.30;99.90
7317;DHT22;3699;51.462;6.696;2022-10-16T01:02:07;14.30;99.90
7317;DHT22;3699;51.462;6.696;2022-10-16T01:04:37;14.30;99.90
7317;DHT22;3699;51.462;6.696;2022-10-16T01:07:12;14.30;99.90
7317;DHT22;3699;51.462;6.696;2022-10-16T01:09:47;14.30;99.90
7317;DHT22;3699;51.462;6.696;2022-10-16T01:12:25;14.20;99.90
7317;DHT22;3699;51.462;6.696;2022-10-16T01:14:54;14.10;99.90
7317;DHT22;3699;51.462;6.696;2022-10-16T01:17:27;14.20;99.90
7317;DHT22;3699;51.462;6.696;2022-10-16T01:20:06;14.20;99.90
7317;DHT22;3699;51.462;6.696;2022-10-16T01:22:40;14.20;99.90
7317;DHT22;3699;51.462;6.696;2022-10-16T01:25:14;14.10;99.90
7317;DHT22;3699;51.462;6.696;2022-10-16T01:27:46;14.10;99.90
7317;DHT22;3699;51.462;6.696;2022-10-16T01:30:16;14.10;99.90
7317;DHT22;3699;51.462;6.696;2022-10-16T01:32:48;14.10;99.90
7317;DHT22;3699;51.462;6.696;2022-10-16T01:35:19;14.10;99.90
7317;DHT22;3699;51.462;6.696;2022-10-16T01:37:51;14.10;99.90
7317;DHT22;3699;51.462;6.696;2022-10-16T01:40:20;14.10;99.90
7317;DHT22;3699;51.462;6.696;2022-10-16T01:42:53;14.10;99.90
7317;DHT22;3699;51.462;6.696;2022-10-16T01:45:22;14.20;99.90
7317;DHT22;3699;51.462;6.696;2022-10-16T01:47:49;14.20;99.90
7317;DHT22;3699;51.462;6.696;2022-10-16T01:50:19;14.30;99.90
7317;DHT22;3699;51.462;6.696;2022-10-16T01:52:49;14.20;99.90
7317;DHT22;3699;51.462;6.696;2022-10-16T01:55:21;14.30;99.90
7317;DHT22;3699;51.462;6.696;2022-10-16T01:57:51;14.30;99.90
7317;DHT22;3699;51.462;6.696;2022-10-16T02:00:20;14.30;99.90
7317;DHT22;3699;51.462;6.696;2022-10-16T02:02:50;14.30;99.90
7317;DHT22;3699;51.462;6.696;2022-10-16T02:05:21;14.30;99.90
7317;DHT22;3699;51.462;6.696;2022-10-16T02:07:51;14.40;99.90
7317;DHT22;3699;51.462;6.696;2022-10-16T02:10:18;14.30;99.90
7317;DHT22;3699;51.462;6.696;2022-10-16T02:12:50;14.30;99.90
7317;DHT22;3699;51.462;6.696;2022-10-16T02:15:17;14.30;99.90
7317;DHT22;3699;51.462;6.696;2022-10-16T02:17:44;14.30;99.90
7317;DHT22;3699;51.462;6.696;2022-10-16T02:20:11;14.20;99.90
7317;DHT22;3699;51.462;6.696;2022-10-16T02:22:40;14.30;99.90
7317;DHT22;3699;51.462;6.696;2022-10-16T02:25:10;14.20;99.90
7317;DHT22;3699;51.462;6.696;2022-10-16T02:27:41;14.20;99.90
7317;DHT22;3699;51.462;6.696;2022-10-16T02:30:14;14.20;99.90
7317;DHT22;3699;51.462;6.696;2022-10-16T02:32:46;14.20;99.90
7317;DHT22;3699;51.462;6.696;2022-10-16T02:35:15;14.20;99.90
7317;DHT22;3699;51.462;6.696;2022-10-16T02:37:44;14.20;99.90
7317;DHT22;3699;51.462;6.696;2022-10-16T02:40:12;14.20;99.90
7317;DHT22;3699;51.462;6.696;2022-10-16T02:42:40;14.20;99.90
7317;DHT22;3699;51.462;6.696;2022-10-16T02:45:08;14.20;99.90
7317;DHT22;3699;51.462;6.696;2022-10-16T02:47:36;14.20;99.90
7317;DHT22;3699;51.462;6.696;2022-10-16T02:50:04;14.20;99.90
7317;DHT22;3699;51.462;6.696;2022-10-16T02:52:31;14.10;99.90
7317;DHT22;3699;51.462;6.696;2022-10-16T02:54:57;14.10;99.90
7317;DHT22;3699;51.462;6.696;2022-10-16T02:57:24;14.10;99.90
7317;DHT22;3699;51.462;6.696;2022-10-16T02:59:51;14.10;99.90
7317;DHT22;3699;51.462;6.696;2022-10-16T03:02:18;14.10;99.90
7317;DHT22;3699;51.462;6.696;2022-10-16T03:04:46;14.10;99.90
7317;DHT22;3699;51.462;6.696;2022-10-16T03:07:12;14.20;99.90
7317;DHT22;3699;51.462;6.696;2022-10-16T03:09:39;14.10;99.90
7317;DHT22;3699;51.462;6.696;2022-10-16T03:12:06;14.20;99.90
7317;DHT22;3699;51.462;6.696;2022-10-16T03:14:33;14.10;99.90
7317;DHT22;3699;51.462;6.696;2022-10-16T03:17:00;14.20;99.90
7317;DHT22;3699;51.462;6.696;2022-10-16T03:19:26;14.20;99.90
7317;DHT22;3699;51.462;6.696;2022-10-16T03:21:54;14.20;99.90
7317;DHT22;3699;51.462;6.696;2022-10-16T03:24:21;14.20;99.90
7317;DHT22;3699;51.462;6.696;2022-10-16T03:26:48;14.20;99.90
7317;DHT22;3699;51.462;6.696;2022-10-16T03:29:14;14.20;99.90
7317;DHT22;3699;51.462;6.696;2022-10-16T03:31:41;14.20;99.90
7317;DHT22;3699;51.462;6.696;2022-10-16T03:34:08;14.20;99.90
7317;DHT22;3699;51.462;6.696;2022-10-16T03:36:35;14.10;99.90
7317;DHT22;3699;51.462;6.696;2022-10-16T03:39:03;14.10;99.90
7317;DHT22;3699;51.462;6.696;2022-10-16T03:41:29;14.10;99.90
7317;DHT22;3699;51.462;6.696;2022-10-16T03:43:56;14.10;99.90
7317;DHT22;3699;51.462;6.696;2022-10-16T03:46:23;14.10;99.90
7317;DHT22;3699;51.462;6.696;2022-10-16T03:48:49;13.40;99.90
7317;DHT22;3699;51.462;6.696;2022-10-16T03:51:16;14.10;99.90
7317;DHT22;3699;51.462;6.696;2022-10-16T03:53:43;14.10;99.90
7317;DHT22;3699;51.462;6.696;2022-10-16T03:56:11;14.10;99.90
7317;DHT22;3699;51.462;6.696;2022-10-16T03:58:38;14.10;99.90
7317;DHT22;3699;51.462;6.696;2022-10-16T04:01:04;14.00;99.90
7317;DHT22;3699;51.462;6.696;2022-10-16T04:03:31;14.00;99.90
7317;DHT22;3699;51.462;6.696;2022-10-16T04:05:58;14.00;99.90
7317;DHT22;3699;51.462;6.696;2022-10-16T04:08:24;14.00;99.90
7317;DHT22;3699;51.462;6.696;2022-10-16T04:10:51;14.00;99.90
7317;DHT22;3699;51.462;6.696;2022-10-16T04:13:19;14.00;99.90
7317;DHT22;3699;51.462;6.696;2022-10-16T04:15:46;14.10;99.90
7317;DHT22;3699;51.462;6.696;2022-10-16T04:18:13;14.10;99.90
7317;DHT22;3699;51.462;6.696;2022-10-16T04:20:40;14.10;99.90
7317;DHT22;3699;51.462;6.696;2022-10-16T04:23:06;14.10;99.90
7317;DHT22;3699;51.462;6.696;2022-10-16T04:25:33;14.10;99.90
7317;DHT22;3699;51.462;6.696;2022-10-16T04:28:00;14.10;99.90
7317;DHT22;3699;51.462;6.696;2022-10-16T04:30:28;14.10;99.90
7317;DHT22;3699;51.462;6.696;2022-10-16T04:32:55;14.10;99.90
7317;DHT22;3699;51.462;6.696;2022-10-16T04:35:22;14.10;99.90
7317;DHT22;3699;51.462;6.696;2022-10-16T04:37:48;14.10;99.90
7317;DHT22;3699;51.462;6.696;2022-10-16T04:40:16;14.10;99.90
7317;DHT22;3699;51.462;6.696;2022-10-16T04:42:43;14.00;99.90
7317;DHT22;3699;51.462;6.696;2022-10-16T04:45:09;14.10;99.90
7317;DHT22;3699;51.462;6.696;2022-10-16T04:47:38;14.10;99.90
7317;DHT22;3699;51.462;6.696;2022-10-16T04:50:05;14.00;99.90
7317;DHT22;3699;51.462;6.696;2022-10-16T04:52:32;14.00;99.90
7317;DHT22;3699;51.462;6.696;2022-10-16T04:54:59;14.00;99.90
7317;DHT22;3699;51.462;6.696;2022-10-16T04:57:28;14.00;99.90
7317;DHT22;3699;51.462;6.696;2022-10-16T04:59:55;14.00;99.90
7317;DHT22;3699;51.462;6.696;2022-10-16T05:02:21;13.90;99.90
7317;DHT22;3699;51.462;6.696;2022-10-16T05:04:49;14.00;99.90
7317;DHT22;3699;51.462;6.696;2022-10-16T05:07:17;14.00;99.90
7317;DHT22;3699;51.462;6.696;2022-10-16T05:09:43;14.00;99.90
7317;DHT22;3699;51.462;6.696;2022-10-16T05:12:10;14.00;99.90
7317;DHT22;3699;51.462;6.696;2022-10-16T05:14:37;14.00;99.90
7317;DHT22;3699;51.462;6.696;2022-10-16T05:17:03;14.00;99.90
7317;DHT22;3699;51.462;6.696;2022-10-16T05:19:30;14.00;99.90
7317;DHT22;3699;51.462;6.696;2022-10-16T05:21:58;14.10;99.90
7317;DHT22;3699;51.462;6.696;2022-10-16T05:24:25;14.00;99.90
7317;DHT22;3699;51.462;6.696;2022-10-16T05:26:52;14.00;99.90
7317;DHT22;3699;51.462;6.696;2022-10-16T05:29:19;14.00;99.90
7317;DHT22;3699;51.462;6.696;2022-10-16T05:31:45;14.00;99.90
7317;DHT22;3699;51.462;6.696;2022-10-16T05:34:12;14.10;99.90
7317;DHT22;3699;51.462;6.696;2022-10-16T05:36:39;14.00;99.90
7317;DHT22;3699;51.462;6.696;2022-10-16T05:39:07;14.10;99.90
7317;DHT22;3699;51.462;6.696;2022-10-16T05:41:34;14.10;99.90
7317;DHT22;3699;51.462;6.696;2022-10-16T05:44:04;14.00;99.90
7317;DHT22;3699;51.462;6.696;2022-10-16T05:46:31;14.10;99.90
7317;DHT22;3699;51.462;6.696;2022-10-16T05:48:58;14.00;99.90
7317;DHT22;3699;51.462;6.696;2022-10-16T05:51:24;14.10;99.90
7317;DHT22;3699;51.462;6.696;2022-10-16T05:53:52;14.00;99.90
7317;DHT22;3699;51.462;6.696;2022-10-16T05:56:20;14.10;99.90
7317;DHT22;3699;51.462;6.696;2022-10-16T05:58:47;14.00;99.90
7317;DHT22;3699;51.462;6.696;2022-10-16T06:01:15;14.00;99.90
7317;DHT22;3699;51.462;6.696;2022-10-16T06:03:42;14.00;99.90
7317;DHT22;3699;51.462;6.696;2022-10-16T06:06:10;14.00;99.90
7317;DHT22;3699;51.462;6.696;2022-10-16T06:08:37;14.00;99.90
7317;DHT22;3699;51.462;6.696;2022-10-16T06:11:06;14.00;99.90
7317;DHT22;3699;51.462;6.696;2022-10-16T06:13:34;13.90;99.90
7317;DHT22;3699;51.462;6.696;2022-10-16T06:16:02;13.90;99.90
7317;DHT22;3699;51.462;6.696;2022-10-16T06:18:30;13.90;99.90
7317;DHT22;3699;51.462;6.696;2022-10-16T06:20:57;14.00;99.90
7317;DHT22;3699;51.462;6.696;2022-10-16T06:23:24;14.00;99.90
7317;DHT22;3699;51.462;6.696;2022-10-16T06:25:51;14.00;99.90
7317;DHT22;3699;51.462;6.696;2022-10-16T06:28:18;14.10;99.90
7317;DHT22;3699;51.462;6.696;2022-10-16T06:30:46;14.10;99.90
7317;DHT22;3699;51.462;6.696;2022-10-16T06:33:13;14.10;99.90
7317;DHT22;3699;51.462;6.696;2022-10-16T06:35:39;14.10;99.90
7317;DHT22;3699;51.462;6.696;2022-10-16T06:38:06;14.10;99.90
7317;DHT22;3699;51.462;6.696;2022-10-16T06:40:33;14.20;99.90
7317;DHT22;3699;51.462;6.696;2022-10-16T06:42:59;14.20;99.90
7317;DHT22;3699;51.462;6.696;2022-10-16T06:45:26;14.20;99.90
7317;DHT22;3699;51.462;6.696;2022-10-16T06:47:54;14.30;99.90
7317;DHT22;3699;51.462;6.696;2022-10-16T06:50:21;14.30;99.90
7317;DHT22;3699;51.462;6.696;2022-10-16T06:52:47;14.30;99.90
7317;DHT22;3699;51.462;6.696;2022-10-16T06:55:14;14.30;99.90
7317;DHT22;3699;51.462;6.696;2022-10-16T06:57:42;14.30;99.90
7317;DHT22;3699;51.462;6.696;2022-10-16T07:00:09;14.30;99.90
7317;DHT22;3699;51.462;6.696;2022-10-16T07:02:36;14.30;99.90
7317;DHT22;3699;51.462;6.696;2022-10-16T07:05:05;14.20;99.90
7317;DHT22;3699;51.462;6.696;2022-10-16T07:07:31;14.30;99.90
7317;DHT22;3699;51.462;6.696;2022-10-16T07:09:58;14.30;99.90
7317;DHT22;3699;51.462;6.696;2022-10-16T07:12:25;14.30;99.90
7317;DHT22;3699;51.462;6.696;2022-10-16T07:14:52;14.20;99.90
7317;DHT22;3699;51.462;6.696;2022-10-16T07:17:20;14.30;99.90
7317;DHT22;3699;51.462;6.696;2022-10-16T07:19:47;14.30;99.90
7317;DHT22;3699;51.462;6.696;2022-10-16T07:22:15;14.20;99.90
7317;DHT22;3699;51.462;6.696;2022-10-16T07:24:41;14.30;99.90
7317;DHT22;3699;51.462;6.696;2022-10-16T07:27:09;14.40;99.90
7317;DHT22;3699;51.462;6.696;2022-10-16T07:29:35;14.50;99.90
7317;DHT22;3699;51.462;6.696;2022-10-16T07:32:02;14.80;99.90
7317;DHT22;3699;51.462;6.696;2022-10-16T07:34:29;15.20;99.90
7317;DHT22;3699;51.462;6.696;2022-10-16T07:36:56;15.60;99.90
7317;DHT22;3699;51.462;6.696;2022-10-16T07:39:24;16.00;99.90
7317;DHT22;3699;51.462;6.696;2022-10-16T07:41:50;16.30;99.90
7317;DHT22;3699;51.462;6.696;2022-10-16T07:44:17;16.60;99.90
7317;DHT22;3699;51.462;6.696;2022-10-16T07:46:44;16.90;99.90
7317;DHT22;3699;51.462;6.696;2022-10-16T07:49:11;17.10;99.90
7317;DHT22;3699;51.462;6.696;2022-10-16T07:51:37;17.40;99.90
7317;DHT22;3699;51.462;6.696;2022-10-16T07:54:04;17.60;99.90
7317;DHT22;3699;51.462;6.696;2022-10-16T07:56:32;17.70;99.90
7317;DHT22;3699;51.462;6.696;2022-10-16T07:58:59;17.80;99.90
7317;DHT22;3699;51.462;6.696;2022-10-16T08:01:26;17.80;99.90
7317;DHT22;3699;51.462;6.696;2022-10-16T08:03:53;17.80;99.90
7317;DHT22;3699;51.462;6.696;2022-10-16T08:06:21;17.70;99.90
7317;DHT22;3699;51.462;6.696;2022-10-16T08:08:48;17.70;99.90
7317;DHT22;3699;51.462;6.696;2022-10-16T08:11:15;17.60;99.90
7317;DHT22;3699;51.462;6.696;2022-10-16T08:13:44;17.50;99.90
7317;DHT22;3699;51.462;6.696;2022-10-16T08:16:11;17.50;99.90
7317;DHT22;3699;51.462;6.696;2022-10-16T08:18:39;17.50;99.90
7317;DHT22;3699;51.462;6.696;2022-10-16T08:21:07;17.50;99.90
7317;DHT22;3699;51.462;6.696;2022-10-16T08:23:34;17.60;99.90
7317;DHT22;3699;51.462;6.696;2022-10-16T08:26:06;17.60;99.90
7317;DHT22;3699;51.462;6.696;2022-10-16T08:28:33;17.70;99.90
7317;DHT22;3699;51.462;6.696;2022-10-16T08:31:09;17.70;99.90
7317;DHT22;3699;51.462;6.696;2022-10-16T08:33:36;17.80;99.90
7317;DHT22;3699;51.462;6.696;2022-10-16T08:36:04;17.90;99.90
7317;DHT22;3699;51.462;6.696;2022-10-16T08:38:32;17.90;99.90
7317;DHT22;3699;51.462;6.696;2022-10-16T08:41:17;17.90;99.90
7317;DHT22;3699;51.462;6.696;2022-10-16T08:46:42;18.10;99.90
7317;DHT22;3699;51.462;6.696;2022-10-16T08:49:13;18.20;99.90
7317;DHT22;3699;51.462;6.696;2022-10-16T08:51:40;18.30;99.90
7317;DHT22;3699;51.462;6.696;2022-10-16T08:54:21;18.30;99.90
7317;DHT22;3699;51.462;6.696;2022-10-16T08:56:49;18.50;99.90
7317;DHT22;3699;51.462;6.696;2022-10-16T08:59:16;18.70;99.90
7317;DHT22;3699;51.462;6.696;2022-10-16T09:01:46;18.70;99.90
7317;DHT22;3699;51.462;6.696;2022-10-16T09:07:24;18.80;99.90
7317;DHT22;3699;51.462;6.696;2022-10-16T09:10:16;18.80;99.90
7317;DHT22;3699;51.462;6.696;2022-10-16T09:12:53;18.80;99.90
7317;DHT22;3699;51.462;6.696;2022-10-16T09:15:29;18.90;99.90
7317;DHT22;3699;51.462;6.696;2022-10-16T09:18:06;19.00;99.90
7317;DHT22;3699;51.462;6.696;2022-10-16T09:20:44;19.00;99.90
7317;DHT22;3699;51.462;6.696;2022-10-16T09:23:16;19.10;99.90
7317;DHT22;3699;51.462;6.696;2022-10-16T09:25:45;19.10;99.90
7317;DHT22;3699;51.462;6.696;2022-10-16T09:28:13;19.20;99.90
7317;DHT22;3699;51.462;6.696;2022-10-16T09:30:40;19.20;99.90
7317;DHT22;3699;51.462;6.696;2022-10-16T09:33:09;19.30;99.90
7317;DHT22;3699;51.462;6.696;2022-10-16T09:35:38;19.40;99.90
7317;DHT22;3699;51.462;6.696;2022-10-16T09:38:06;19.40;99.90
7317;DHT22;3699;51.462;6.696;2022-10-16T09:40:34;19.40;99.90
7317;DHT22;3699;51.462;6.696;2022-10-16T09:43:11;19.40;99.90
7317;DHT22;3699;51.462;6.696;2022-10-16T09:45:41;19.50;99.90
7317;DHT22;3699;51.462;6.696;2022-10-16T09:48:13;19.50;99.90
7317;DHT22;3699;51.462;6.696;2022-10-16T09:50:39;19.60;99.90
7317;DHT22;3699;51.462;6.696;2022-10-16T09:53:11;19.70;99.90
7317;DHT22;3699;51.462;6.696;2022-10-16T09:55:48;19.80;99.90
7317;DHT22;3699;51.462;6.696;2022-10-16T09:58:15;19.80;99.90
7317;DHT22;3699;51.462;6.696;2022-10-16T10:00:49;19.90;99.90
7317;DHT22;3699;51.462;6.696;2022-10-16T10:03:33;19.90;99.90
7317;DHT22;3699;51.462;6.696;2022-10-16T10:06:03;20.00;99.90
7317;DHT22;3699;51.462;6.696;2022-10-16T10:08:31;20.10;99.90
7317;DHT22;3699;51.462;6.696;2022-10-16T10:10:58;20.00;99.90
7317;DHT22;3699;51.462;6.696;2022-10-16T10:13:25;20.00;99.90
7317;DHT22;3699;51.462;6.696;2022-10-16T10:15:53;19.90;99.90
7317;DHT22;3699;51.462;6.696;2022-10-16T10:18:22;19.90;99.90
7317;DHT22;3699;51.462;6.696;2022-10-16T10:20:57;20.00;99.90
7317;DHT22;3699;51.462;6.696;2022-10-16T10:23:27;20.00;99.90
7317;DHT22;3699;51.462;6.696;2022-10-16T10:26:01;20.10;99.90
7317;DHT22;3699;51.462;6.696;2022-10-16T10:28:43;20.20;99.90
7317;DHT22;3699;51.462;6.696;2022-10-16T10:31:17;20.20;99.90
7317;DHT22;3699;51.462;6.696;2022-10-16T10:33:52;20.30;99.90
7317;DHT22;3699;51.462;6.696;2022-10-16T10:36:28;20.30;99.90
7317;DHT22;3699;51.462;6.696;2022-10-16T10:38:58;20.30;99.90
7317;DHT22;3699;51.462;6.696;2022-10-16T10:44:28;20.50;99.90
7317;DHT22;3699;51.462;6.696;2022-10-16T10:46:58;20.50;99.90
7317;DHT22;3699;51.462;6.696;2022-10-16T10:49:41;20.60;99.90
7317;DHT22;3699;51.462;6.696;2022-10-16T10:52:25;20.70;99.90
7317;DHT22;3699;51.462;6.696;2022-10-16T10:55:06;20.80;99.90
7317;DHT22;3699;51.462;6.696;2022-10-16T10:57:38;20.90;99.90
7317;DHT22;3699;51.462;6.696;2022-10-16T11:00:17;21.00;99.90
7317;DHT22;3699;51.462;6.696;2022-10-16T11:02:52;21.10;99.90
7317;DHT22;3699;51.462;6.696;2022-10-16T11:05:33;21.20;99.90
7317;DHT22;3699;51.462;6.696;2022-10-16T11:08:08;21.20;99.90
7317;DHT22;3699;51.462;6.696;2022-10-16T11:10:42;21.40;99.90
7317;DHT22;3699;51.462;6.696;2022-10-16T11:13:19;21.50;99.90
7317;DHT22;3699;51.462;6.696;2022-10-16T11:15:49;21.60;99.90
7317;DHT22;3699;51.462;6.696;2022-10-16T11:18:19;21.60;99.90
7317;DHT22;3699;51.462;6.696;2022-10-16T11:20:52;21.80;99.90
7317;DHT22;3699;51.462;6.696;2022-10-16T11:23:24;21.90;99.90
7317;DHT22;3699;51.462;6.696;2022-10-16T11:25:52;21.90;99.90
7317;DHT22;3699;51.462;6.696;2022-10-16T11:28:23;21.90;99.90
7317;DHT22;3699;51.462;6.696;2022-10-16T11:30:56;22.00;99.90
7317;DHT22;3699;51.462;6.696;2022-10-16T11:33:28;22.00;99.90
7317;DHT22;3699;51.462;6.696;2022-10-16T11:36:02;22.00;99.90
7317;DHT22;3699;51.462;6.696;2022-10-16T11:38:35;22.00;99.90
7317;DHT22;3699;51.462;6.696;2022-10-16T11:41:10;21.90;99.90
7317;DHT22;3699;51.462;6.696;2022-10-16T11:43:42;21.80;99.90
7317;DHT22;3699;51.462;6.696;2022-10-16T11:46:13;21.70;99.90
7317;DHT22;3699;51.462;6.696;2022-10-16T11:48:47;21.70;99.90
7317;DHT22;3699;51.462;6.696;2022-10-16T11:51:20;21.60;99.90
7317;DHT22;3699;51.462;6.696;2022-10-16T11:53:53;21.60;99.90
7317;DHT22;3699;51.462;6.696;2022-10-16T11:56:21;21.50;99.90
7317;DHT22;3699;51.462;6.696;2022-10-16T11:58:54;21.50;99.90
7317;DHT22;3699;51.462;6.696;2022-10-16T12:01:29;21.50;99.90
7317;DHT22;3699;51.462;6.696;2022-10-16T12:04:16;21.50;99.90
7317;DHT22;3699;51.462;6.696;2022-10-16T12:06:47;21.60;99.90
7317;DHT22;3699;51.462;6.696;2022-10-16T12:09:20;21.50;99.90
7317;DHT22;3699;51.462;6.696;2022-10-16T12:11:48;21.50;99.90
7317;DHT22;3699;51.462;6.696;2022-10-16T12:17:25;21.40;99.90
7317;DHT22;3699;51.462;6.696;2022-10-16T12:20:00;21.40;99.90
7317;DHT22;3699;51.462;6.696;2022-10-16T12:22:29;21.30;99.90
7317;DHT22;3699;51.462;6.696;2022-10-16T12:24:57;21.20;99.90
7317;DHT22;3699;51.462;6.696;2022-10-16T12:27:28;21.30;99.90
7317;DHT22;3699;51.462;6.696;2022-10-16T12:29:57;21.20;99.90
7317;DHT22;3699;51.462;6.696;2022-10-16T12:32:29;21.10;99.90
7317;DHT22;3699;51.462;6.696;2022-10-16T12:34:57;18.90;99.90
7317;DHT22;3699;51.462;6.696;2022-10-16T12:37:26;20.80;99.90
7317;DHT22;3699;51.462;6.696;2022-10-16T12:39:56;20.70;99.90
7317;DHT22;3699;51.462;6.696;2022-10-16T12:42:33;20.60;99.90
7317;DHT22;3699;51.462;6.696;2022-10-16T12:45:00;20.60;99.90
7317;DHT22;3699;51.462;6.696;2022-10-16T12:47:46;20.50;99.90
7317;DHT22;3699;51.462;6.696;2022-10-16T12:50:29;20.40;99.90
7317;DHT22;3699;51.462;6.696;2022-10-16T12:52:57;20.30;99.90
7317;DHT22;3699;51.462;6.696;2022-10-16T12:55:26;20.20;99.90
7317;DHT22;3699;51.462;6.696;2022-10-16T12:58:07;20.20;99.90
7317;DHT22;3699;51.462;6.696;2022-10-16T13:00:41;20.20;99.90
7317;DHT22;3699;51.462;6.696;2022-10-16T13:03:48;20.20;99.90
7317;DHT22;3699;51.462;6.696;2022-10-16T13:06:29;20.30;99.90
7317;DHT22;3699;51.462;6.696;2022-10-16T13:09:11;20.30;99.90
7317;DHT22;3699;51.462;6.696;2022-10-16T13:11:52;20.30;99.90
7317;DHT22;3699;51.462;6.696;2022-10-16T13:17:18;20.30;99.90
7317;DHT22;3699;51.462;6.696;2022-10-16T13:19:56;20.30;99.90
7317;DHT22;3699;51.462;6.696;2022-10-16T13:22:32;20.30;99.90
7317;DHT22;3699;51.462;6.696;2022-10-16T13:25:14;20.30;99.90
7317;DHT22;3699;51.462;6.696;2022-10-16T13:27:49;20.30;99.90
7317;DHT22;3699;51.462;6.696;2022-10-16T13:30:20;20.20;99.90
7317;DHT22;3699;51.462;6.696;2022-10-16T13:32:50;20.20;99.90
7317;DHT22;3699;51.462;6.696;2022-10-16T13:35:22;20.10;99.90
7317;DHT22;3699;51.462;6.696;2022-10-16T13:37:50;20.00;99.90
7317;DHT22;3699;51.462;6.696;2022-10-16T13:40:22;20.00;99.90
7317;DHT22;3699;51.462;6.696;2022-10-16T13:42:52;20.00;99.90
7317;DHT22;3699;51.462;6.696;2022-10-16T13:45:20;20.00;99.90
7317;DHT22;3699;51.462;6.696;2022-10-16T13:47:47;20.10;99.90
7317;DHT22;3699;51.462;6.696;2022-10-16T13:50:16;20.10;99.90
7317;DHT22;3699;51.462;6.696;2022-10-16T13:52:43;20.10;99.90
7317;DHT22;3699;51.462;6.696;2022-10-16T13:55:11;20.10;99.90
7317;DHT22;3699;51.462;6.696;2022-10-16T13:57:38;20.20;99.90
7317;DHT22;3699;51.462;6.696;2022-10-16T14:00:20;20.30;99.90
7317;DHT22;3699;51.462;6.696;2022-10-16T14:02:51;20.40;99.90
7317;DHT22;3699;51.462;6.696;2022-10-16T14:05:18;20.40;99.90
7317;DHT22;3699;51.462;6.696;2022-10-16T14:07:49;20.40;99.90
7317;DHT22;3699;51.462;6.696;2022-10-16T14:10:23;20.40;99.90
7317;DHT22;3699;51.462;6.696;2022-10-16T14:13:02;20.40;99.90
7317;DHT22;3699;51.462;6.696;2022-10-16T14:15:31;20.30;99.90
7317;DHT22;3699;51.462;6.696;2022-10-16T14:17:59;20.20;99.90
7317;DHT22;3699;51.462;6.696;2022-10-16T14:20:27;20.10;99.90
7317;DHT22;3699;51.462;6.696;2022-10-16T14:23:02;20.10;99.90
7317;DHT22;3699;51.462;6.696;2022-10-16T14:25:32;20.10;99.90
7317;DHT22;3699;51.462;6.696;2022-10-16T14:28:04;20.10;99.90
7317;DHT22;3699;51.462;6.696;2022-10-16T14:30:34;20.00;99.90
7317;DHT22;3699;51.462;6.696;2022-10-16T14:33:04;20.00;99.90
7317;DHT22;3699;51.462;6.696;2022-10-16T14:35:33;20.00;99.90
7317;DHT22;3699;51.462;6.696;2022-10-16T14:38:01;20.00;99.90
7317;DHT22;3699;51.462;6.696;2022-10-16T14:40:30;20.10;99.90
7317;DHT22;3699;51.462;6.696;2022-10-16T14:42:57;20.20;99.90
7317;DHT22;3699;51.462;6.696;2022-10-16T14:45:27;20.20;99.90
7317;DHT22;3699;51.462;6.696;2022-10-16T14:47:58;20.10;99.90
7317;DHT22;3699;51.462;6.696;2022-10-16T14:50:26;20.00;99.90
7317;DHT22;3699;51.462;6.696;2022-10-16T14:52:54;20.00;99.90
7317;DHT22;3699;51.462;6.696;2022-10-16T14:55:21;20.00;99.90
7317;DHT22;3699;51.462;6.696;2022-10-16T14:57:48;19.90;99.90
7317;DHT22;3699;51.462;6.696;2022-10-16T15:00:19;19.90;99.90
7317;DHT22;3699;51.462;6.696;2022-10-16T15:02:48;19.90;99.90
7317;DHT22;3699;51.462;6.696;2022-10-16T15:05:19;19.90;99.90
7317;DHT22;3699;51.462;6.696;2022-10-16T15:07:47;19.90;99.90
7317;DHT22;3699;51.462;6.696;2022-10-16T15:10:16;19.80;99.90
7317;DHT22;3699;51.462;6.696;2022-10-16T15:12:43;19.70;99.90
7317;DHT22;3699;51.462;6.696;2022-10-16T15:15:26;19.70;99.90
7317;DHT22;3699;51.462;6.696;2022-10-16T15:17:56;19.50;99.90
7317;DHT22;3699;51.462;6.696;2022-10-16T15:20:28;19.50;99.90
7317;DHT22;3699;51.462;6.696;2022-10-16T15:22:55;19.40;99.90
7317;DHT22;3699;51.462;6.696;2022-10-16T15:25:32;19.40;99.90
7317;DHT22;3699;51.462;6.696;2022-10-16T15:28:00;19.30;99.90
7317;DHT22;3699;51.462;6.696;2022-10-16T15:30:28;19.30;99.90
7317;DHT22;3699;51.462;6.696;2022-10-16T15:32:55;19.20;99.90
7317;DHT22;3699;51.462;6.696;2022-10-16T15:35:22;19.20;99.90
7317;DHT22;3699;51.462;6.696;2022-10-16T15:37:50;19.20;99.90
7317;DHT22;3699;51.462;6.696;2022-10-16T15:40:17;19.10;99.90
7317;DHT22;3699;51.462;6.696;2022-10-16T15:42:45;19.10;99.90
7317;DHT22;3699;51.462;6.696;2022-10-16T15:45:12;19.00;99.90
7317;DHT22;3699;51.462;6.696;2022-10-16T15:47:40;19.00;99.90
7317;DHT22;3699;51.462;6.696;2022-10-16T15:50:09;18.90;99.90
7317;DHT22;3699;51.462;6.696;2022-10-16T15:52:37;18.90;99.90
7317;DHT22;3699;51.462;6.696;2022-10-16T15:55:07;18.80;99.90
7317;DHT22;3699;51.462;6.696;2022-10-16T15:57:34;18.70;99.90
7317;DHT22;3699;51.462;6.696;2022-10-16T16:00:05;18.70;99.90
7317;DHT22;3699;51.462;6.696;2022-10-16T16:02:32;18.60;99.90
7317;DHT22;3699;51.462;6.696;2022-10-16T16:04:58;18.50;99.90
7317;DHT22;3699;51.462;6.696;2022-10-16T16:07:25;18.40;99.90
7317;DHT22;3699;51.462;6.696;2022-10-16T16:09:52;18.30;99.90
7317;DHT22;3699;51.462;6.696;2022-10-16T16:12:21;18.20;99.90
7317;DHT22;3699;51.462;6.696;2022-10-16T16:14:47;18.20;99.90
7317;DHT22;3699;51.462;6.696;2022-10-16T16:17:14;18.10;99.90
7317;DHT22;3699;51.462;6.696;2022-10-16T16:19:41;18.00;99.90
7317;DHT22;3699;51.462;6.696;2022-10-16T16:22:08;17.90;99.90
7317;DHT22;3699;51.462;6.696;2022-10-16T16:24:34;17.90;99.90
7317;DHT22;3699;51.462;6.696;2022-10-16T16:27:01;17.80;99.90
7317;DHT22;3699;51.462;6.696;2022-10-16T16:29:29;17.70;99.90
7317;DHT22;3699;51.462;6.696;2022-10-16T16:31:56;17.60;99.90